Time;durP1;ratioP1;P1;durP2;ratioP2;P2;SDS_P1;SDS_P2;PMS_P1;PMS_P2;Temp;Humidity;BMP_temperature;BMP_pressure;BME280_temperature;BME280_humidity;BME280_pressure;Samples;Min_cycle;Max_cycle;Signal;HPM_P1;HPM_P2
2023/07/04 00:01:53;;;;;;;3.20;3.00;;;21.10;99.90;;;21.56;66.12;94959.47;5073029;28;20466;-65
2023/07/04 00:04:22;;;;;;;3.23;3.03;;;21.10;99.90;;;21.53;66.02;94962.56;5074975;28;20497;-67
2023/07/04 00:06:50;;;;;;;8.03;3.30;;;21.00;99.90;;;21.49;66.21;94962.97;5071051;28;20454;-68
2023/07/04 00:09:18;;;;;;;4.60;4.00;;;21.00;99.90;;;21.47;66.30;94959.66;5076139;28;20533;-60
2023/07/04 00:11:47;;;;;;;3.90;3.53;;;21.00;99.90;;;21.45;66.63;94960.91;5075466;28;20533;-65
2023/07/04 00:14:14;;;;;;;9.90;3.40;;;21.00;99.90;;;21.40;66.52;94964.19;5074674;28;20451;-67
2023/07/04 00:16:42;;;;;;;3.27;2.97;;;20.90;99.90;;;21.38;66.38;94966.25;5070764;28;20490;-63
2023/07/04 00:19:10;;;;;;;5.63;3.00;;;20.90;99.90;;;21.33;66.70;94966.00;5073851;28;20534;-65
2023/07/04 00:21:38;;;;;;;4.50;3.03;;;20.90;99.90;;;21.29;66.53;94967.47;5073170;28;20847;-61
2023/07/04 00:24:07;;;;;;;8.87;4.07;;;20.80;99.90;;;21.28;66.83;94969.31;5076903;28;20978;-66
2023/07/04 00:26:35;;;;;;;3.23;3.03;;;20.80;99.90;;;21.27;66.63;94970.34;5076380;28;20463;-59
2023/07/04 00:29:03;;;;;;;3.90;3.00;;;20.80;99.90;;;21.26;67.05;94973.22;5075354;28;20828;-60
2023/07/04 00:31:32;;;;;;;3.93;3.43;;;20.80;99.90;;;21.25;67.22;94967.03;5076382;28;20451;-59
2023/07/04 00:33:59;;;;;;;3.77;3.47;;;20.80;99.90;;;21.24;67.20;94964.56;5080201;28;20458;-61
2023/07/04 00:36:29;;;;;;;4.03;3.20;;;20.70;99.90;;;21.22;67.11;94961.28;5073712;28;20490;-64
2023/07/04 00:38:59;;;;;;;3.23;3.03;;;20.70;99.90;;;21.19;67.38;94965.19;5080017;28;20494;-62
2023/07/04 00:41:28;;;;;;;4.83;3.53;;;20.70;99.90;;;21.17;67.32;94958.41;5072375;28;20450;-62
2023/07/04 00:44:00;;;;;;;3.33;3.13;;;20.70;99.90;;;21.14;67.37;94960.44;5072649;28;20457;-65
2023/07/04 00:46:39;;;;;;;2.90;2.80;;;20.70;99.90;;;21.11;67.75;94950.16;5074667;28;20447;-60
2023/07/04 00:49:22;;;;;;;3.97;3.57;;;20.70;99.90;;;21.09;67.43;94954.88;5073033;28;20443;-64
2023/07/04 00:51:57;;;;;;;3.97;3.53;;;20.60;99.90;;;21.04;67.34;94953.88;5079350;28;20958;-60
2023/07/04 00:54:25;;;;;;;16.53;4.00;;;20.60;99.90;;;21.00;67.60;94953.41;5070589;28;20466;-65
2023/07/04 00:56:58;;;;;;;5.63;4.70;;;20.50;99.90;;;20.97;67.94;94959.19;5080485;28;20524;-65
2023/07/04 00:59:27;;;;;;;11.73;4.63;;;20.50;99.90;;;20.94;67.87;94952.41;5077469;28;21040;-64
2023/07/04 01:01:57;;;;;;;5.30;4.73;;;20.50;99.90;;;20.93;68.04;94958.78;5077474;28;20472;-65
2023/07/04 01:04:25;;;;;;;11.23;5.27;;;20.50;99.90;;;20.91;68.09;94955.47;5076767;28;20478;-65
2023/07/04 01:06:57;;;;;;;5.07;4.67;;;20.50;99.90;;;20.87;67.97;94948.06;5078189;28;20461;-60
2023/07/04 01:09:25;;;;;;;8.27;6.73;;;20.50;99.90;;;20.83;68.01;94952.16;5078821;28;20474;-65
2023/07/04 01:11:52;;;;;;;5.60;4.40;;;20.40;99.90;;;20.78;68.36;94950.09;5077530;28;20543;-60
2023/07/04 01:14:21;;;;;;;4.27;4.00;;;20.40;99.90;;;20.77;68.48;94954.63;5076403;28;20493;-61
2023/07/04 01:16:49;;;;;;;3.77;3.47;;;20.30;99.90;;;20.74;68.31;94954.19;5075535;28;20483;-65
2023/07/04 01:19:26;;;;;;;8.63;4.00;;;20.30;99.90;;;20.68;68.44;94957.66;5076152;28;21004;-65
2023/07/04 01:22:08;;;;;;;4.67;4.27;;;20.20;99.90;;;20.60;68.71;94951.44;5071051;28;20848;-65
2023/07/04 01:24:57;;;;;;;4.93;4.43;;;20.20;99.90;;;20.55;68.86;94956.53;5076901;28;20568;-64
2023/07/04 01:27:26;;;;;;;4.57;4.17;;;20.10;99.90;;;20.50;69.02;94958.19;5073213;28;20880;-67
2023/07/04 01:29:54;;;;;;;19.77;10.30;;;20.10;99.90;;;20.47;69.16;94948.72;5071371;28;20554;-66
2023/07/04 01:32:22;;;;;;;10.53;7.20;;;20.10;99.90;;;20.46;69.29;94948.91;5073092;28;20512;-65
2023/07/04 01:34:49;;;;;;;13.13;9.40;;;20.00;99.90;;;20.48;69.43;94960.22;5071853;28;20980;-64
2023/07/04 01:37:18;;;;;;;8.57;5.90;;;20.00;99.90;;;20.48;69.49;94954.88;5069154;28;20525;-65
2023/07/04 01:39:45;;;;;;;11.90;8.10;;;20.00;99.90;;;20.49;69.43;94961.88;5071544;28;20498;-58
2023/07/04 01:42:13;;;;;;;13.70;7.83;;;20.00;99.90;;;20.46;69.46;94960.41;5073278;28;20477;-65
2023/07/04 01:44:41;;;;;;;8.30;5.80;;;20.00;99.90;;;20.46;69.78;94963.09;5070958;28;20575;-61
2023/07/04 01:47:09;;;;;;;13.43;6.33;;;20.00;99.90;;;20.45;69.95;94961.47;5069896;28;21393;-59
2023/07/04 01:49:36;;;;;;;9.40;6.80;;;20.00;99.90;;;20.46;69.72;94962.28;5071866;28;20477;-60
2023/07/04 01:52:03;;;;;;;12.43;6.00;;;20.00;99.90;;;20.46;69.65;94967.63;5071102;28;20459;-59
2023/07/04 01:54:31;;;;;;;8.23;5.10;;;20.00;99.90;;;20.46;69.85;94962.28;5071567;28;20482;-63
2023/07/04 01:56:58;;;;;;;8.13;5.03;;;20.00;99.90;;;20.46;69.78;94968.44;5071831;28;20486;-61
2023/07/04 01:59:25;;;;;;;9.43;5.13;;;20.00;99.90;;;20.47;69.96;94963.94;5070431;28;20496;-60
2023/07/04 02:01:55;;;;;;;6.70;4.33;;;20.00;99.90;;;20.44;69.78;94965.13;5077585;28;20465;-60
2023/07/04 02:04:23;;;;;;;13.80;4.93;;;20.00;99.90;;;20.42;70.07;94968.00;5069269;28;20888;-60
2023/07/04 02:06:50;;;;;;;6.90;4.83;;;20.00;99.90;;;20.40;70.22;94972.75;5072276;28;20975;-64
2023/07/04 02:09:18;;;;;;;7.33;4.60;;;20.00;99.90;;;20.39;69.96;94968.41;5075017;28;20465;-63
2023/07/04 02:11:46;;;;;;;5.73;3.90;;;19.90;99.90;;;20.39;70.05;94970.25;5069016;28;20462;-59
2023/07/04 02:14:14;;;;;;;4.80;4.30;;;19.90;99.90;;;20.37;70.22;94975.81;5075810;28;21035;-60
2023/07/04 02:16:41;;;;;;;14.60;4.63;;;19.90;99.90;;;20.35;70.00;94977.84;5073990;28;20458;-60
2023/07/04 02:19:10;;;;;;;5.70;4.17;;;19.90;99.90;;;20.33;69.68;94974.53;5076104;28;20527;-66
2023/07/04 02:21:37;;;;;;;7.30;4.53;;;19.90;99.90;;;20.32;70.14;94977.41;5069661;28;20462;-65
2023/07/04 02:24:05;;;;;;;4.63;4.17;;;19.90;99.90;;;20.28;70.18;94977.00;5070959;28;20455;-61
2023/07/04 02:26:32;;;;;;;4.60;4.20;;;19.80;99.90;;;20.26;70.20;94973.66;5069979;28;20446;-65
2023/07/04 02:29:00;;;;;;;7.00;4.00;;;19.80;99.90;;;20.25;70.28;94974.72;5073111;28;20534;-60
2023/07/04 02:31:27;;;;;;;4.83;4.00;;;19.80;99.90;;;20.23;70.33;94972.25;5073695;28;20456;-65
2023/07/04 02:33:55;;;;;;;5.30;4.30;;;19.80;99.90;;;20.22;70.56;94969.75;5077862;28;20466;-65
2023/07/04 02:36:23;;;;;;;5.80;3.87;;;19.80;99.90;;;20.22;70.61;94967.91;5074301;28;20581;-62
2023/07/04 02:38:50;;;;;;;5.37;4.10;;;19.80;99.90;;;20.22;70.32;94967.09;5079834;28;20554;-60
2023/07/04 02:41:18;;;;;;;7.23;4.20;;;19.80;99.90;;;20.21;70.38;94968.09;5069507;28;20470;-60
2023/07/04 02:43:45;;;;;;;4.60;4.20;;;19.80;99.90;;;20.21;70.19;94960.91;5074963;28;20453;-61
2023/07/04 02:46:12;;;;;;;8.60;4.43;;;19.80;99.90;;;20.20;69.83;94961.94;5076757;28;20479;-60
2023/07/04 02:48:41;;;;;;;6.10;4.70;;;19.80;99.90;;;20.20;69.51;94963.78;5073520;28;20965;-59
2023/07/04 02:51:08;;;;;;;4.50;4.10;;;19.80;99.90;;;20.16;69.23;94965.22;5073937;28;20508;-60
2023/07/04 02:53:37;;;;;;;5.73;3.60;;;19.70;99.90;;;20.13;69.15;94968.28;5074178;28;20542;-64
2023/07/04 02:56:05;;;;;;;4.60;4.20;;;19.70;99.90;;;20.10;69.32;94969.47;5071871;28;20548;-64
2023/07/04 02:58:32;;;;;;;12.23;3.97;;;19.70;99.90;;;20.07;69.16;94964.53;5075605;28;20489;-65
2023/07/04 03:00:59;;;;;;;5.30;4.17;;;19.60;99.90;;;20.04;68.95;94965.75;5077917;28;20473;-64
2023/07/04 03:03:27;;;;;;;6.43;3.97;;;19.60;99.90;;;20.02;69.02;94967.78;5072687;28;20889;-60
2023/07/04 03:05:54;;;;;;;4.40;3.57;;;19.60;99.90;;;20.00;69.00;94969.00;5072455;28;20486;-66
2023/07/04 03:08:22;;;;;;;5.20;3.80;;;19.50;99.90;;;19.97;69.32;94967.56;5076481;28;20999;-66
2023/07/04 03:10:50;;;;;;;4.30;3.90;;;19.60;99.90;;;19.95;69.04;94960.75;5076909;28;21170;-64
2023/07/04 03:13:18;;;;;;;4.73;4.33;;;19.50;99.90;;;19.93;68.99;94968.16;5071308;28;20459;-65
2023/07/04 03:15:45;;;;;;;4.50;4.10;;;19.50;99.90;;;19.91;69.00;94972.84;5073821;28;20481;-65
2023/07/04 03:18:12;;;;;;;8.10;3.80;;;19.50;99.90;;;19.90;69.12;94969.34;5073032;28;20541;-60
2023/07/04 03:20:39;;;;;;;6.37;4.33;;;19.50;99.90;;;19.89;68.98;94970.38;5075053;28;21339;-60
2023/07/04 03:23:07;;;;;;;3.90;3.70;;;19.50;99.90;;;19.87;69.02;94970.56;5079496;28;20563;-66
2023/07/04 03:25:34;;;;;;;5.83;4.57;;;19.40;99.90;;;19.87;69.17;94970.56;5075554;28;20470;-61
2023/07/04 03:28:03;;;;;;;10.53;5.13;;;19.40;99.90;;;19.83;69.18;94965.81;5079151;28;20461;-66
2023/07/04 03:30:30;;;;;;;7.30;4.67;;;19.40;99.90;;;19.78;68.67;94968.25;5076051;28;20527;-67
2023/07/04 03:32:57;;;;;;;11.87;4.37;;;19.40;99.90;;;19.70;68.84;94964.69;5075588;28;20874;-61
2023/07/04 03:35:25;;;;;;;8.13;4.00;;;19.30;99.90;;;19.65;69.43;94968.94;5073017;28;20477;-66
2023/07/04 03:37:53;;;;;;;7.10;4.67;;;19.30;99.90;;;19.63;69.68;94974.47;5072231;28;20568;-60
2023/07/04 03:40:20;;;;;;;6.23;4.40;;;19.20;99.90;;;19.65;69.51;94977.78;5073883;28;20474;-60
2023/07/04 03:42:47;;;;;;;9.30;4.43;;;19.20;99.90;;;19.66;69.47;94975.94;5075594;28;20454;-66
2023/07/04 03:45:16;;;;;;;6.43;4.63;;;19.30;99.90;;;19.69;69.89;94984.38;5075197;28;20505;-66
2023/07/04 03:47:43;;;;;;;8.23;4.73;;;19.30;99.90;;;19.74;69.92;94980.31;5073882;28;20447;-65
2023/07/04 03:50:13;;;;;;;5.47;4.70;;;19.30;99.90;;;19.78;69.93;94978.91;5075730;28;20478;-61
2023/07/04 03:52:40;;;;;;;8.83;5.30;;;19.30;99.90;;;19.81;69.99;94982.03;5081412;28;20450;-66
2023/07/04 03:55:09;;;;;;;6.67;6.00;;;19.40;99.90;;;19.84;70.11;94986.97;5077893;28;20474;-68
2023/07/04 03:57:36;;;;;;;8.53;6.90;;;19.40;99.90;;;19.88;69.95;94998.09;5080961;28;20501;-66
2023/07/04 04:00:05;;;;;;;12.03;6.90;;;19.40;99.90;;;19.90;70.11;95001.41;5074139;28;20470;-65
2023/07/04 04:02:34;;;;;;;9.43;6.10;;;19.50;99.90;;;19.94;70.22;95002.66;5076058;28;21303;-60
2023/07/04 04:05:01;;;;;;;11.10;6.87;;;19.50;99.90;;;20.00;70.11;94995.69;5073833;28;20523;-67
2023/07/04 04:07:29;;;;;;;8.87;5.57;;;19.60;99.90;;;20.04;70.48;94987.09;5076878;28;20454;-60
2023/07/04 04:09:56;;;;;;;7.27;6.57;;;19.60;99.90;;;20.11;70.88;94994.34;5075639;28;20551;-67
2023/07/04 04:12:23;;;;;;;8.33;5.70;;;19.60;99.90;;;20.13;70.50;94997.66;5071644;28;20580;-68
2023/07/04 04:14:51;;;;;;;12.27;7.30;;;19.70;99.90;;;20.19;70.55;95000.34;5073326;28;20478;-71
2023/07/04 04:17:19;;;;;;;10.57;5.83;;;19.70;99.90;;;20.25;70.25;95006.78;5076070;28;20547;-59
2023/07/04 04:19:47;;;;;;;7.60;6.10;;;19.80;99.90;;;20.33;70.17;95000.44;5073906;28;20469;-62
2023/07/04 04:22:15;;;;;;;9.83;6.07;;;19.80;99.90;;;20.37;70.06;95007.88;5073330;28;20454;-59
2023/07/04 04:24:42;;;;;;;14.63;7.17;;;19.90;99.90;;;20.40;69.55;95007.47;5071595;28;21061;-58
2023/07/04 04:27:12;;;;;;;7.80;6.27;;;20.00;99.90;;;20.40;69.80;95012.81;5072493;28;20469;-61
2023/07/04 04:29:39;;;;;;;11.17;6.13;;;20.00;99.90;;;20.43;69.54;95008.91;5071279;28;20506;-61
2023/07/04 04:32:07;;;;;;;9.00;6.40;;;20.00;99.90;;;20.48;69.65;95019.84;5068791;28;20459;-61
2023/07/04 04:34:34;;;;;;;14.10;5.83;;;20.00;99.90;;;20.55;69.52;95025.22;5077827;28;20483;-60
2023/07/04 04:37:03;;;;;;;9.50;6.33;;;20.10;99.90;;;20.62;69.42;95017.22;5074986;28;20990;-62
2023/07/04 04:39:31;;;;;;;11.83;6.70;;;20.10;99.90;;;20.67;69.10;95012.97;5074153;28;20930;-67
2023/07/04 04:41:58;;;;;;;16.70;7.93;;;20.20;99.90;;;20.72;69.18;95018.53;5070404;28;20451;-60
2023/07/04 04:44:26;;;;;;;10.90;6.97;;;20.20;99.90;;;20.78;69.13;95008.91;5073027;28;20481;-61
2023/07/04 04:46:53;;;;;;;13.40;6.27;;;20.30;99.90;;;20.82;68.83;95023.53;5068052;28;20491;-66
2023/07/04 04:49:21;;;;;;;25.77;6.17;;;20.30;99.90;;;20.87;68.87;95013.03;5072572;28;20542;-64
2023/07/04 04:51:51;;;;;;;9.83;6.67;;;20.40;99.90;;;20.90;68.80;95023.34;5070577;28;20462;-61
2023/07/04 04:54:20;;;;;;;25.50;6.10;;;20.40;99.90;;;20.93;68.92;95020.28;5075425;28;21016;-64
2023/07/04 04:56:47;;;;;;;7.53;6.10;;;20.50;99.90;;;20.97;69.19;95018.00;5072554;28;20834;-60
2023/07/04 04:59:15;;;;;;;20.00;6.83;;;20.50;99.90;;;21.03;69.06;95019.06;5070995;28;20500;-61
2023/07/04 05:01:42;;;;;;;24.03;7.67;;;20.50;99.90;;;21.07;68.63;95023.81;5076203;28;20462;-60
2023/07/04 05:04:09;;;;;;;19.03;7.33;;;20.60;99.90;;;21.10;68.72;95022.56;5073026;28;20457;-61
2023/07/04 05:06:37;;;;;;;8.67;6.73;;;20.60;99.90;;;21.13;68.68;95023.00;5070141;28;20508;-65
2023/07/04 05:09:05;;;;;;;12.00;6.57;;;20.70;99.90;;;21.17;68.33;95023.41;5071997;28;20479;-65
2023/07/04 05:11:34;;;;;;;9.73;6.23;;;20.70;99.90;;;21.22;68.25;95020.94;5073540;28;20454;-64
2023/07/04 05:14:02;;;;;;;8.00;7.03;;;20.70;99.90;;;21.28;68.27;95025.50;5069172;28;20612;-64
2023/07/04 05:16:29;;;;;;;13.30;7.13;;;20.80;99.90;;;21.36;68.35;95020.97;5071706;28;20459;-64
2023/07/04 05:18:56;;;;;;;7.23;6.53;;;20.90;99.90;;;21.45;68.43;95015.22;5073596;28;20494;-62
2023/07/04 05:21:25;;;;;;;13.30;7.87;;;20.90;99.90;;;21.57;68.00;95012.81;5070244;28;20478;-65
2023/07/04 05:23:53;;;;;;;11.87;6.77;;;21.10;99.90;;;21.71;68.31;95016.31;5077131;28;20438;-61
2023/07/04 05:26:22;;;;;;;16.53;7.30;;;21.20;99.90;;;21.90;67.55;95005.81;5070304;28;20509;-64
2023/07/04 05:28:51;;;;;;;8.80;6.77;;;21.30;99.90;;;22.08;67.24;95006.00;5071351;28;20455;-63
2023/07/04 05:31:21;;;;;;;12.00;7.23;;;21.50;99.90;;;22.29;66.78;95009.47;5069110;28;20528;-61
2023/07/04 05:33:49;;;;;;;14.00;7.63;;;21.70;99.90;;;22.49;66.57;95004.91;5066638;28;20485;-61
2023/07/04 05:36:17;;;;;;;8.30;7.43;;;21.90;99.90;;;22.72;65.91;95008.97;5067954;28;20535;-60
2023/07/04 05:38:45;;;;;;;7.53;6.80;;;22.10;99.90;;;22.94;65.77;95006.00;5069342;28;21045;-64
2023/07/04 05:41:13;;;;;;;10.10;7.43;;;22.30;99.90;;;23.15;65.13;95011.06;5068629;28;20478;-64
2023/07/04 05:43:41;;;;;;;9.30;6.47;;;22.50;99.90;;;23.40;64.76;95008.44;5069003;28;20487;-60
2023/07/04 05:46:11;;;;;;;16.27;7.10;;;22.80;99.90;;;23.61;63.89;95015.31;5068326;28;20478;-63
2023/07/04 05:48:38;;;;;;;15.40;6.53;;;22.90;99.90;;;23.83;63.90;95014.97;5066967;28;20458;-64
2023/07/04 05:51:06;;;;;;;19.13;7.20;;;23.10;99.90;;;24.04;63.41;95015.63;5073646;28;20471;-60
2023/07/04 05:53:35;;;;;;;19.27;7.03;;;23.40;99.90;;;24.25;62.45;95017.09;5079317;28;20457;-61
2023/07/04 05:56:07;;;;;;;11.10;7.73;;;23.60;99.90;;;24.47;62.57;95020.19;5074260;28;20546;-61
2023/07/04 05:58:34;;;;;;;11.40;7.53;;;23.80;99.90;;;24.68;61.77;95011.72;5078264;28;20565;-64
2023/07/04 06:01:06;;;;;;;20.00;7.93;;;24.00;99.90;;;24.92;61.25;95009.13;5072573;28;20852;-64
2023/07/04 06:03:35;;;;;;;12.90;6.80;;;24.20;99.90;;;25.14;60.37;95014.03;5073127;28;20978;-61
2023/07/04 06:06:03;;;;;;;8.90;6.83;;;24.40;99.90;;;25.34;60.27;95014.63;5071816;28;20529;-62
2023/07/04 06:08:30;;;;;;;10.50;6.57;;;24.70;99.90;;;25.55;59.97;95015.16;5072310;28;20530;-65
2023/07/04 06:11:01;;;;;;;10.90;6.60;;;24.80;99.90;;;25.71;58.90;95014.50;5074326;28;20540;-61
2023/07/04 06:13:29;;;;;;;19.07;6.37;;;25.00;99.90;;;25.90;59.00;95017.94;5079657;28;20510;-64
2023/07/04 06:15:56;;;;;;;14.20;6.57;;;25.20;99.90;;;26.09;58.32;95017.88;5070292;28;20475;-63
2023/07/04 06:18:23;;;;;;;10.40;6.67;;;25.40;99.80;;;26.28;57.96;95013.19;5073278;28;20493;-64
2023/07/04 06:20:52;;;;;;;12.40;6.07;;;25.60;99.20;;;26.46;57.42;95014.91;5067024;28;20486;-61
2023/07/04 06:23:20;;;;;;;9.27;5.90;;;25.70;99.00;;;26.58;57.22;95018.41;5072363;28;20453;-61
2023/07/04 06:25:47;;;;;;;9.17;5.90;;;25.90;98.70;;;26.71;56.87;95006.59;5071370;28;20914;-63
2023/07/04 06:28:15;;;;;;;13.47;6.57;;;26.00;98.50;;;26.86;56.42;95008.78;5070560;28;20458;-65
2023/07/04 06:30:42;;;;;;;15.10;6.40;;;26.10;98.10;;;27.02;56.01;95012.63;5073121;28;20480;-61
2023/07/04 06:33:09;;;;;;;11.23;6.40;;;26.30;97.80;;;27.18;55.80;95017.25;5075131;28;20461;-64
2023/07/04 06:35:42;;;;;;;8.53;5.10;;;26.50;97.60;;;27.36;55.31;95012.78;5070990;28;20581;-61
2023/07/04 06:38:11;;;;;;;8.60;5.53;;;26.60;97.10;;;27.53;54.99;95007.41;5079618;28;20497;-64
2023/07/04 06:40:38;;;;;;;7.73;5.03;;;26.80;96.90;;;27.70;54.67;95018.22;5079671;28;20473;-63
2023/07/04 06:43:05;;;;;;;5.10;4.60;;;27.00;96.50;;;27.83;54.17;95011.69;5078093;28;20449;-64
2023/07/04 06:45:35;;;;;;;7.43;5.50;;;27.10;96.10;;;27.94;54.34;95013.50;5076668;28;20490;-65
2023/07/04 06:48:02;;;;;;;10.80;4.70;;;27.20;95.70;;;28.09;53.80;95026.50;5076107;28;20503;-60
2023/07/04 06:50:29;;;;;;;8.23;3.60;;;27.30;95.40;;;28.24;53.06;95024.03;5077901;28;20478;-60
2023/07/04 06:52:57;;;;;;;10.90;4.33;;;27.50;94.90;;;28.40;52.68;95016.13;5081192;28;20456;-62
2023/07/04 06:55:25;;;;;;;5.77;4.20;;;27.60;94.40;;;28.55;52.50;95018.22;5078486;28;20839;-60
2023/07/04 06:57:53;;;;;;;5.17;4.50;;;27.80;94.40;;;28.66;51.81;95017.34;5072431;28;21058;-62
2023/07/04 07:00:20;;;;;;;7.67;4.40;;;27.90;94.00;;;28.75;52.53;95007.72;5076116;28;20543;-65
2023/07/04 07:02:51;;;;;;;11.57;5.07;;;28.00;93.70;;;28.87;51.45;94998.66;5077347;28;20546;-61
2023/07/04 07:05:18;;;;;;;6.83;4.60;;;28.10;93.30;;;29.00;51.55;95009.09;5079142;28;20544;-60
2023/07/04 07:07:47;;;;;;;6.77;3.87;;;28.20;93.10;;;29.15;50.86;95006.56;5075095;28;20880;-66
2023/07/04 07:10:15;;;;;;;7.57;4.83;;;28.30;92.20;;;29.28;50.40;95002.69;5073263;28;20502;-62
2023/07/04 07:12:43;;;;;;;7.47;4.73;;;28.50;92.40;;;29.38;50.46;95006.59;5074249;28;21032;-62
2023/07/04 07:15:11;;;;;;;12.60;5.03;;;28.60;91.90;;;29.42;50.27;95002.28;5072388;28;20293;-61
2023/07/04 07:17:39;;;;;;;9.00;5.40;;;28.70;91.70;;;29.47;50.46;95011.28;5076173;28;20542;-60
2023/07/04 07:20:08;;;;;;;8.50;4.37;;;28.70;91.40;;;29.48;50.44;95012.09;5071937;28;20330;-60
2023/07/04 07:22:35;;;;;;;12.17;4.60;;;28.70;91.40;;;29.47;50.37;94996.91;5075226;28;20450;-61
2023/07/04 07:25:03;;;;;;;6.80;3.93;;;28.70;91.10;;;29.54;49.85;95010.25;5070373;28;20543;-61
2023/07/04 07:27:30;;;;;;;8.83;4.30;;;28.80;91.00;;;29.66;49.40;95003.59;5068918;28;20277;-60
2023/07/04 07:29:59;;;;;;;5.17;4.70;;;28.90;90.90;;;29.78;48.97;95013.47;5072151;28;20721;-61
2023/07/04 07:32:26;;;;;;;12.23;4.00;;;28.90;90.30;;;29.77;49.19;95018.06;5073310;28;20200;-62
2023/07/04 07:34:54;;;;;;;5.20;4.80;;;29.00;89.80;;;29.85;49.66;95014.09;5073120;28;20242;-61
2023/07/04 07:37:21;;;;;;;5.23;3.67;;;29.00;90.10;;;29.97;48.72;95009.31;5073925;28;20200;-62
2023/07/04 07:39:51;;;;;;;10.53;4.37;;;29.20;90.10;;;30.10;48.41;95007.25;5069078;28;20313;-66
2023/07/04 07:42:18;;;;;;;12.43;6.83;;;29.30;89.60;;;30.13;48.35;95012.16;5072950;28;20201;-62
2023/07/04 07:44:45;;;;;;;5.27;4.30;;;29.40;88.10;;;30.16;47.97;95015.19;5071022;28;20223;-65
2023/07/04 07:47:14;;;;;;;5.10;3.80;;;29.40;88.30;;;30.33;48.02;95008.78;5072061;28;20669;-61
2023/07/04 07:49:41;;;;;;;5.17;4.30;;;29.50;88.00;;;30.55;47.28;95014.94;5073867;28;20216;-62
2023/07/04 07:52:08;;;;;;;5.30;4.50;;;29.70;87.20;;;30.81;47.60;95012.34;5074074;28;20237;-66
2023/07/04 07:54:36;;;;;;;4.37;3.97;;;29.90;86.90;;;31.10;46.59;95006.53;5068465;28;20227;-61
2023/07/04 07:57:04;;;;;;;7.90;5.03;;;30.20;86.00;;;31.36;46.63;95009.34;5069712;28;20199;-66
2023/07/04 07:59:31;;;;;;;6.47;4.07;;;30.50;84.90;;;31.63;45.83;95003.72;5074006;28;20236;-60
2023/07/04 08:01:58;;;;;;;4.07;3.78;;;30.80;83.80;;;31.79;45.57;95007.25;5072314;28;20212;-60
2023/07/04 08:04:27;;;;;;;6.68;3.92;;;31.00;82.60;;;31.93;45.32;95007.53;5068680;28;20220;-63
2023/07/04 08:06:54;;;;;;;7.05;4.68;;;31.10;81.80;;;32.12;45.00;95005.13;5079266;28;20196;-65
2023/07/04 08:09:22;;;;;;;4.53;4.10;;;31.20;80.80;;;32.32;44.31;95002.38;5070727;28;20231;-63
2023/07/04 08:11:49;;;;;;;14.63;4.05;;;31.40;79.90;;;32.47;44.08;95000.72;5076303;28;20200;-61
2023/07/04 08:14:19;;;;;;;6.82;3.10;;;31.70;78.10;;;32.47;43.63;94996.13;5074608;28;20257;-62
2023/07/04 08:16:48;;;;;;;4.35;4.05;;;31.70;77.20;;;32.51;43.13;94990.94;5068092;28;20201;-64
2023/07/04 08:19:17;;;;;;;6.78;4.32;;;31.70;76.40;;;32.59;42.97;94995.00;5077524;28;21043;-64
2023/07/04 08:21:46;;;;;;;5.50;3.72;;;31.80;75.30;;;32.57;42.83;94997.19;5071363;28;20192;-64
2023/07/04 08:24:14;;;;;;;5.03;4.63;;;31.80;74.60;;;32.59;42.71;94992.28;5072370;28;20578;-61
2023/07/04 08:26:45;;;;;;;16.67;3.78;;;31.80;74.30;;;32.50;42.35;94990.13;5072689;28;20325;-63
2023/07/04 08:29:12;;;;;;;3.92;3.72;;;31.80;73.10;;;32.51;42.50;94986.28;5075378;28;20228;-64
2023/07/04 08:31:39;;;;;;;4.57;4.18;;;31.70;73.50;;;32.52;42.45;94987.94;5072258;28;20200;-65
2023/07/04 08:34:07;;;;;;;9.15;4.22;;;31.70;73.40;;;32.58;43.04;94985.19;5071707;28;20668;-62
2023/07/04 08:36:34;;;;;;;6.10;3.58;;;31.70;74.00;;;32.70;43.37;94988.44;5074940;28;20200;-62
2023/07/04 08:39:03;;;;;;;8.70;4.07;;;31.90;74.70;;;32.95;42.90;94986.72;5075705;28;20293;-65
2023/07/04 08:41:44;;;;;;;7.45;5.10;;;32.10;74.40;;;33.15;41.14;94992.09;5070969;28;20646;-61
2023/07/04 08:44:15;;;;;;;6.07;4.82;;;32.30;71.10;;;33.07;41.86;94987.22;5071547;28;20187;-66
2023/07/04 08:46:44;;;;;;;4.13;3.78;;;32.30;71.50;;;32.99;41.72;94988.63;5072153;28;20257;-65
2023/07/04 08:49:34;;;;;;;15.35;4.47;;;32.20;71.80;;;33.19;41.56;94981.50;5069157;28;20200;-64
2023/07/04 08:52:03;;;;;;;9.35;4.38;;;32.30;71.90;;;33.48;41.78;94981.59;5076460;28;20288;-61
2023/07/04 08:54:32;;;;;;;8.68;4.28;;;32.60;71.40;;;33.66;41.79;94985.56;5071745;28;20306;-62
2023/07/04 08:57:01;;;;;;;7.07;4.38;;;32.80;71.50;;;33.81;41.19;94983.88;5072875;28;20201;-65
2023/07/04 08:59:39;;;;;;;5.65;4.68;;;33.00;70.90;;;34.04;40.66;94976.88;5071532;28;20352;-64
2023/07/04 09:02:24;;;;;;;4.78;4.28;;;33.20;70.30;;;34.26;40.14;94976.41;5070167;28;20782;-61
2023/07/04 09:04:57;;;;;;;5.88;4.65;;;33.40;69.60;;;34.42;40.47;94971.59;5076358;28;20220;-66
2023/07/04 09:07:29;;;;;;;5.45;4.93;;;33.60;69.10;;;34.49;39.94;94974.81;5074161;28;20792;-66
2023/07/04 09:10:04;;;;;;;17.23;5.07;;;33.70;67.70;;;34.36;38.96;94975.50;5072726;28;20219;-61
2023/07/04 09:12:35;;;;;;;8.48;5.35;;;33.60;66.40;;;34.27;39.99;94976.13;5071303;28;20199;-61
2023/07/04 09:15:12;;;;;;;6.10;4.68;;;33.50;66.40;;;34.17;39.10;94973.44;5069154;28;20235;-61
2023/07/04 09:17:49;;;;;;;10.13;5.18;;;33.50;66.00;;;34.11;40.15;94969.13;5074448;28;20192;-62
2023/07/04 09:20:17;;;;;;;5.47;4.60;;;33.30;66.00;;;34.12;39.39;94971.59;5072153;28;20766;-64
2023/07/04 09:22:44;;;;;;;11.82;5.30;;;33.30;66.50;;;34.32;40.00;94982.63;5074576;28;20472;-64
2023/07/04 09:25:13;;;;;;;10.23;5.43;;;33.40;66.50;;;34.57;39.74;94971.44;5073022;28;20228;-66
2023/07/04 09:27:40;;;;;;;7.20;5.47;;;33.70;66.20;;;34.84;39.72;94978.28;5071928;28;20789;-62
2023/07/04 09:30:09;;;;;;;10.73;6.05;;;34.00;65.60;;;35.09;39.35;94968.13;5072638;28;20219;-61
2023/07/04 09:32:37;;;;;;;9.65;5.85;;;34.20;65.50;;;35.29;38.95;94965.19;5070881;28;20665;-64
2023/07/04 09:35:05;;;;;;;14.98;5.68;;;34.50;65.00;;;35.33;38.99;94963.47;5069480;28;20274;-62
2023/07/04 09:37:32;;;;;;;7.00;5.63;;;34.60;63.60;;;35.24;37.90;94954.28;5075455;28;20314;-65
2023/07/04 09:40:04;;;;;;;13.40;6.05;;;34.50;63.00;;;35.18;38.05;94955.44;5067953;28;20223;-61
2023/07/04 09:42:45;;;;;;;9.50;5.82;;;34.50;63.00;;;35.15;38.52;94950.56;5068087;28;20588;-66
2023/07/04 09:45:14;;;;;;;8.20;5.43;;;34.40;62.20;;;35.18;38.45;94953.53;5071096;28;20223;-61
2023/07/04 09:47:44;;;;;;;6.93;5.43;;;34.40;62.40;;;35.26;37.96;94946.63;5068912;28;20199;-66
2023/07/04 09:50:13;;;;;;;9.25;6.07;;;34.50;62.10;;;35.38;37.57;94953.56;5070630;28;20216;-66
2023/07/04 09:52:41;;;;;;;5.88;5.32;;;34.50;61.50;;;35.44;37.73;94942.25;5074588;28;21238;-67
2023/07/04 09:55:16;;;;;;;7.55;5.35;;;34.70;60.90;;;35.51;37.81;94952.84;5073358;28;20262;-66
2023/07/04 09:57:45;;;;;;;7.45;5.53;;;34.70;60.90;;;35.64;37.29;94946.59;5070348;28;20199;-63
2023/07/04 10:00:20;;;;;;;9.40;5.10;;;34.80;61.30;;;35.72;37.58;94948.66;5068549;28;20231;-62
2023/07/04 10:02:52;;;;;;;5.93;4.88;;;34.90;60.60;;;35.64;37.66;94943.88;5071657;28;20207;-63
2023/07/04 10:05:28;;;;;;;10.82;6.20;;;34.90;59.70;;;35.51;37.30;94948.19;5068956;28;20228;-65
2023/07/04 10:08:05;;;;;;;14.05;6.57;;;34.80;59.40;;;35.29;36.99;94935.09;5068020;28;20260;-66
2023/07/04 10:10:34;;;;;;;7.30;6.10;;;34.70;59.40;;;35.09;37.40;94936.16;5075554;28;20698;-66
2023/07/04 10:13:03;;;;;;;8.63;5.10;;;34.50;59.80;;;34.99;37.87;94931.63;5073276;28;20191;-61
2023/07/04 10:15:39;;;;;;;9.55;5.00;;;34.30;59.40;;;35.04;38.08;94932.69;5076339;28;20239;-62
2023/07/04 10:18:07;;;;;;;7.35;5.25;;;34.30;60.00;;;35.14;37.51;94927.88;5068603;28;20188;-67
2023/07/04 10:20:40;;;;;;;6.75;6.07;;;34.30;60.10;;;35.16;37.16;94933.88;5072283;28;20308;-61
2023/07/04 10:23:07;;;;;;;6.88;6.28;;;34.40;60.20;;;35.16;37.80;94931.13;5072478;28;20196;-61
2023/07/04 10:25:34;;;;;;;7.25;6.65;;;34.40;59.80;;;35.05;37.77;94929.66;5075017;28;20223;-66